createdAt,value
2023-03-22T00:00:09.698Z,44.45
2023-03-22T00:03:15.562Z,45.33
2023-03-22T00:06:24.006Z,46.80
2023-03-22T00:09:25.279Z,46.75
2023-03-22T00:12:31.544Z,45.48
2023-03-22T00:15:37.258Z,44.95
2023-03-22T00:18:43.617Z,43.45
2023-03-22T00:21:49.520Z,41.53
2023-03-22T00:24:55.340Z,41.88
2023-03-22T00:28:01.875Z,43.95
2023-03-22T00:31:11.257Z,42.53
2023-03-22T00:34:17.915Z,42.40
2023-03-22T00:37:23.472Z,41.75
2023-03-22T00:40:29.469Z,40.88
2023-03-22T00:43:36.063Z,43.75
2023-03-22T00:46:41.877Z,41.55
2023-03-22T00:49:49.936Z,40.52
2023-03-22T00:52:57.153Z,40.67
2023-03-22T00:56:03.438Z,41.13
2023-03-22T00:59:20.336Z,39.15
2023-03-22T01:02:26.475Z,39.70
2023-03-22T01:05:34.809Z,39.95
2023-03-22T01:08:42.186Z,39.95
2023-03-22T01:11:48.459Z,38.53
2023-03-22T01:14:54.912Z,41.85
2023-03-22T01:18:02.150Z,42.10
2023-03-22T01:21:07.867Z,42.98
2023-03-22T01:24:12.838Z,42.58
2023-03-22T01:27:18.960Z,43.10
2023-03-22T01:30:25.411Z,42.17
2023-03-22T01:33:31.004Z,41.18
2023-03-22T01:36:36.827Z,43.13
2023-03-22T01:39:42.480Z,43.55
2023-03-22T01:42:48.264Z,41.90
2023-03-22T01:45:57.801Z,41.95
2023-03-22T01:49:04.835Z,43.48
2023-03-22T01:52:21.034Z,45.10
2023-03-22T01:55:30.581Z,43.65
2023-03-22T01:58:41.948Z,44.65
2023-03-22T02:01:49.334Z,45.95
2023-03-22T02:04:56.914Z,45.48
2023-03-22T02:08:03.638Z,44.20
2023-03-22T02:11:11.518Z,43.00
2023-03-22T02:14:47.501Z,42.80
2023-03-22T02:18:14.866Z,42.38
2023-03-22T02:21:44.225Z,39.73
2023-03-22T02:25:04.725Z,41.88
2023-03-22T02:28:40.921Z,44.03
2023-03-22T02:32:21.904Z,42.38
2023-03-22T02:35:57.254Z,42.67
2023-03-22T02:39:23.864Z,40.65
2023-03-22T02:42:35.832Z,41.55
2023-03-22T02:46:04.385Z,40.88
2023-03-22T02:49:26.509Z,41.85
2023-03-22T02:52:46.156Z,41.95
2023-03-22T02:56:09.956Z,44.30
2023-03-22T02:59:19.182Z,44.83
2023-03-22T03:02:27.328Z,45.15
2023-03-22T03:05:34.153Z,45.78
2023-03-22T03:08:39.948Z,47.17
2023-03-22T03:11:46.026Z,44.65
2023-03-22T03:14:52.757Z,43.90
2023-03-22T03:18:20.805Z,43.70
2023-03-22T03:21:49.752Z,44.08
2023-03-22T03:24:59.636Z,42.95
2023-03-22T03:28:32.742Z,43.38
2023-03-22T03:32:18.702Z,46.23
2023-03-22T03:35:34.480Z,42.60
2023-03-22T03:38:45.242Z,43.30
2023-03-22T03:41:52.278Z,44.25
2023-03-22T03:44:58.217Z,43.28
2023-03-22T03:48:04.220Z,42.30
2023-03-22T03:51:11.206Z,43.63
2023-03-22T03:54:17.909Z,45.03
2023-03-22T03:57:24.469Z,45.58
2023-03-22T04:00:31.953Z,43.73
2023-03-22T04:03:49.420Z,43.13
2023-03-22T04:07:04.034Z,43.35
2023-03-22T04:10:10.482Z,44.45
2023-03-22T04:13:16.815Z,45.00
2023-03-22T04:16:25.130Z,43.60
2023-03-22T04:19:34.137Z,44.42
2023-03-22T04:22:40.883Z,45.67
2023-03-22T04:25:47.174Z,53.83
2023-03-22T04:28:56.318Z,66.70
2023-03-22T04:32:03.332Z,62.90
2023-03-22T04:35:11.263Z,57.65
2023-03-22T04:38:17.535Z,64.00
2023-03-22T04:41:23.885Z,57.78
2023-03-22T04:44:30.786Z,50.58
2023-03-22T04:47:37.751Z,47.73
2023-03-22T04:50:43.867Z,44.10
2023-03-22T04:53:52.212Z,44.00
2023-03-22T04:56:58.168Z,44.48
2023-03-22T05:00:07.011Z,43.23
2023-03-22T05:03:12.839Z,43.35
2023-03-22T05:06:20.934Z,43.02
2023-03-22T05:09:29.529Z,46.08
2023-03-22T05:12:36.836Z,44.00
2023-03-22T05:15:54.296Z,43.00
2023-03-22T05:19:02.156Z,44.93
2023-03-22T05:22:09.913Z,44.77
2023-03-22T05:25:16.983Z,44.60
2023-03-22T05:28:22.519Z,45.60
2023-03-22T05:31:36.046Z,45.17
2023-03-22T05:34:36.774Z,45.65
2023-03-22T05:37:27.402Z,58.33
2023-03-22T05:40:22.168Z,50.52
2023-03-22T05:43:15.928Z,50.67
2023-03-22T05:46:26.286Z,55.15
2023-03-22T05:49:39.606Z,46.45
2023-03-22T05:52:46.380Z,42.75
2023-03-22T05:56:00.187Z,42.53
2023-03-22T05:59:05.815Z,50.85
2023-03-22T06:02:11.905Z,45.05
2023-03-22T06:05:18.788Z,43.15
2023-03-22T06:08:26.389Z,43.30
2023-03-22T06:11:30.898Z,43.55
2023-03-22T06:14:36.198Z,42.05
2023-03-22T06:17:46.351Z,44.85
2023-03-22T06:20:54.129Z,41.15
2023-03-22T06:24:00.611Z,41.25
2023-03-22T06:27:06.407Z,40.60
2023-03-22T06:30:12.297Z,46.10
2023-03-22T06:33:25.043Z,40.28
2023-03-22T06:36:34.743Z,43.73
2023-03-22T06:39:43.929Z,38.55
2023-03-22T06:42:51.978Z,36.65
2023-03-22T06:46:12.365Z,34.98
2023-03-22T06:49:19.416Z,34.95
2023-03-22T06:52:29.163Z,36.88
2023-03-22T06:55:38.517Z,34.23
2023-03-22T06:58:49.343Z,34.33
2023-03-22T07:01:57.362Z,34.30
2023-03-22T07:05:05.395Z,31.05
2023-03-22T07:08:10.662Z,32.17
2023-03-22T07:11:22.654Z,33.92
2023-03-22T07:14:30.433Z,32.40
2023-03-22T07:17:37.729Z,32.33
2023-03-22T07:20:49.007Z,33.73
2023-03-22T07:23:57.403Z,31.07
2023-03-22T07:27:05.692Z,32.03
2023-03-22T07:30:12.680Z,31.12
2023-03-22T07:33:20.690Z,30.57
2023-03-22T07:36:32.233Z,31.52
2023-03-22T07:39:40.496Z,29.92
2023-03-22T07:42:48.808Z,30.52
2023-03-22T07:45:56.204Z,29.60
2023-03-22T07:49:13.902Z,29.85
2023-03-22T07:52:36.238Z,30.12
2023-03-22T07:55:41.256Z,29.32
2023-03-22T07:58:47.040Z,28.35
2023-03-22T08:01:53.098Z,27.05
2023-03-22T08:05:11.817Z,25.17
2023-03-22T08:08:23.633Z,26.33
2023-03-22T08:11:29.748Z,23.52
2023-03-22T08:14:36.819Z,23.85
2023-03-22T08:17:45.924Z,21.90
2023-03-22T08:20:56.942Z,23.42
2023-03-22T08:24:04.772Z,21.90
2023-03-22T08:27:24.748Z,21.23
2023-03-22T08:30:31.099Z,22.65
2023-03-22T08:33:37.339Z,22.80
2023-03-22T08:36:43.412Z,21.00
2023-03-22T08:39:59.318Z,20.35
2023-03-22T08:43:07.428Z,21.80
2023-03-22T08:46:14.020Z,20.12
2023-03-22T08:49:22.768Z,17.92
2023-03-22T08:52:30.913Z,19.85
2023-03-22T08:55:45.112Z,19.37
2023-03-22T08:58:53.715Z,18.27
2023-03-22T09:02:22.556Z,20.82
2023-03-22T09:05:35.884Z,20.57
2023-03-22T09:08:44.051Z,19.77
2023-03-22T09:11:54.595Z,19.05
2023-03-22T09:15:03.227Z,20.20
2023-03-22T09:18:10.781Z,18.25
2023-03-22T09:21:17.015Z,17.85
2023-03-22T09:24:26.603Z,16.93
2023-03-22T09:27:35.355Z,15.48
2023-03-22T09:30:41.536Z,17.70
2023-03-22T09:33:49.584Z,17.87
2023-03-22T09:36:57.402Z,18.27
2023-03-22T09:40:06.121Z,19.42
2023-03-22T09:43:18.700Z,17.77
2023-03-22T09:46:28.532Z,16.37
2023-03-22T09:49:52.625Z,17.85
2023-03-22T09:52:48.111Z,16.42
2023-03-22T09:56:06.972Z,16.02
2023-03-22T09:59:26.885Z,15.18
2023-03-22T10:02:59.274Z,16.27
2023-03-22T10:06:16.924Z,15.63
2023-03-22T10:09:40.650Z,15.53
2023-03-22T10:12:54.103Z,15.78
2023-03-22T10:16:08.656Z,16.55
2023-03-22T10:19:24.639Z,16.02
2023-03-22T10:22:31.723Z,15.78
2023-03-22T10:25:41.806Z,15.30
2023-03-22T10:28:57.477Z,15.48
2023-03-22T10:32:02.515Z,15.18
2023-03-22T10:35:11.077Z,14.73
2023-03-22T10:38:18.928Z,15.48
2023-03-22T10:41:26.574Z,15.05
2023-03-22T10:44:35.048Z,16.37
2023-03-22T10:48:08.142Z,15.70
2023-03-22T10:51:22.066Z,15.83
2023-03-22T10:54:32.973Z,15.70
2023-03-22T10:57:40.629Z,15.48
2023-03-22T11:00:46.567Z,16.93
2023-03-22T11:04:05.258Z,17.27
2023-03-22T11:07:11.786Z,15.63
2023-03-22T11:10:34.516Z,14.65
2023-03-22T11:16:49.141Z,14.73
2023-03-22T11:19:58.040Z,15.70
2023-03-22T11:23:05.147Z,16.60
2023-03-22T11:26:15.305Z,15.13
2023-03-22T11:29:33.064Z,16.10
2023-03-22T11:32:53.909Z,14.40
2023-03-22T11:36:05.264Z,15.48
2023-03-22T11:39:16.421Z,13.35
2023-03-22T11:42:25.423Z,15.55
2023-03-22T11:45:52.288Z,14.07
2023-03-22T11:49:01.194Z,14.47
2023-03-22T11:52:07.497Z,14.25
2023-03-22T11:55:15.381Z,15.40
2023-03-22T11:58:25.548Z,13.78
2023-03-22T12:01:55.289Z,14.80
2023-03-22T12:05:07.625Z,14.18
2023-03-22T12:08:22.118Z,14.93
2023-03-22T12:11:47.641Z,14.80
2023-03-22T12:15:18.430Z,14.73
2023-03-22T12:18:29.506Z,16.77
2023-03-22T12:21:38.171Z,16.23
2023-03-22T12:24:47.278Z,15.25
2023-03-22T12:27:58.022Z,16.52
2023-03-22T12:31:08.617Z,16.62
2023-03-22T12:34:19.917Z,15.72
2023-03-22T12:37:31.393Z,16.65
2023-03-22T12:40:46.492Z,17.05
2023-03-22T12:44:10.621Z,16.25
2023-03-22T12:47:31.641Z,15.43
2023-03-22T12:50:48.571Z,15.13
2023-03-22T12:54:05.184Z,16.12
2023-03-22T12:57:12.400Z,15.20
2023-03-22T13:00:24.822Z,17.80
2023-03-22T13:03:36.842Z,19.73
2023-03-22T13:07:04.788Z,19.05
2023-03-22T13:10:10.926Z,16.85
2023-03-22T13:13:37.703Z,15.25
2023-03-22T13:17:06.591Z,16.35
2023-03-22T13:20:28.447Z,17.90
2023-03-22T13:23:43.052Z,18.10
2023-03-22T13:27:07.086Z,17.17
2023-03-22T13:30:15.758Z,17.95
2023-03-22T13:33:28.269Z,17.37
2023-03-22T13:39:52.324Z,17.35
2023-03-22T13:42:58.696Z,16.42
2023-03-22T13:46:36.587Z,16.90
2023-03-22T13:50:00.870Z,17.75
2023-03-22T13:53:21.314Z,16.75
2023-03-22T13:56:28.610Z,17.73
2023-03-22T13:59:50.627Z,17.75
2023-03-22T14:02:57.113Z,17.90
2023-03-22T14:06:01.863Z,18.87
2023-03-22T14:09:14.072Z,17.48
2023-03-22T14:12:32.835Z,18.82
2023-03-22T14:15:47.560Z,18.25
2023-03-22T14:18:56.576Z,17.87
